Terminal Aerodrome Forecast
Issued by NWS Mt. Holly, NJ

Home | Current Version | Previous Version | Text Only | Print | Product List | Glossary On
Versions: 1 2 3 4 5 6 7 8 9 10 11 12 13 14
000
FTUS41 KPHI 200100 AAA
TAFILG
TAF AMD
KILG 200143Z 2002/2024 15008KT P6SM BKN250
     FM200600 04008KT P6SM SCT250
     FM201200 08012G18KT P6SM SKC
     FM202100 11010KT P6SM SKC=

USA.gov is the U.S. government's official web portal to all federal, state and local government web resources and services.